sensor_id;sensor_type;location;lat;lon;timestamp;P1;durP1;ratioP1;P2;durP2;ratioP2
71353;SDS011;59393;51.652;4.864;2023-03-11T00:00:19;4.37;;;0.80;;
71353;SDS011;59393;51.652;4.864;2023-03-11T00:02:47;1.30;;;0.50;;
71353;SDS011;59393;51.652;4.864;2023-03-11T00:05:17;5.00;;;0.60;;
71353;SDS011;59393;51.652;4.864;2023-03-11T00:07:43;13.52;;;1.00;;
71353;SDS011;59393;51.652;4.864;2023-03-11T00:10:14;3.22;;;0.75;;
71353;SDS011;59393;51.652;4.864;2023-03-11T00:12:40;2.03;;;0.50;;
71353;SDS011;59393;51.652;4.864;2023-03-11T00:15:06;2.67;;;0.57;;
71353;SDS011;59393;51.652;4.864;2023-03-11T00:17:32;6.45;;;0.60;;
71353;SDS011;59393;51.652;4.864;2023-03-11T00:19:58;8.57;;;0.60;;
71353;SDS011;59393;51.652;4.864;2023-03-11T00:22:24;1.20;;;0.40;;
71353;SDS011;59393;51.652;4.864;2023-03-11T00:24:50;3.58;;;0.70;;
71353;SDS011;59393;51.652;4.864;2023-03-11T00:27:16;5.75;;;0.60;;
71353;SDS011;59393;51.652;4.864;2023-03-11T00:29:42;3.78;;;0.68;;
71353;SDS011;59393;51.652;4.864;2023-03-11T00:32:08;3.93;;;0.80;;
71353;SDS011;59393;51.652;4.864;2023-03-11T00:34:34;4.22;;;0.77;;
71353;SDS011;59393;51.652;4.864;2023-03-11T00:37:00;4.15;;;0.93;;
71353;SDS011;59393;51.652;4.864;2023-03-11T00:39:26;8.50;;;0.98;;
71353;SDS011;59393;51.652;4.864;2023-03-11T00:41:52;6.07;;;0.70;;
71353;SDS011;59393;51.652;4.864;2023-03-11T00:44:20;3.05;;;0.70;;
71353;SDS011;59393;51.652;4.864;2023-03-11T00:46:46;3.08;;;0.70;;
71353;SDS011;59393;51.652;4.864;2023-03-11T00:49:12;4.40;;;1.10;;
71353;SDS011;59393;51.652;4.864;2023-03-11T00:51:38;9.18;;;1.05;;
71353;SDS011;59393;51.652;4.864;2023-03-11T00:54:04;4.53;;;0.50;;
71353;SDS011;59393;51.652;4.864;2023-03-11T00:56:30;3.85;;;0.43;;
71353;SDS011;59393;51.652;4.864;2023-03-11T00:58:56;1.80;;;0.60;;
71353;SDS011;59393;51.652;4.864;2023-03-11T01:01:22;1.98;;;0.73;;
71353;SDS011;59393;51.652;4.864;2023-03-11T01:03:48;8.50;;;0.70;;
71353;SDS011;59393;51.652;4.864;2023-03-11T01:06:14;3.78;;;0.80;;
71353;SDS011;59393;51.652;4.864;2023-03-11T01:08:43;6.07;;;0.77;;
71353;SDS011;59393;51.652;4.864;2023-03-11T01:11:09;2.55;;;0.70;;
71353;SDS011;59393;51.652;4.864;2023-03-11T01:13:35;3.85;;;0.63;;
71353;SDS011;59393;51.652;4.864;2023-03-11T01:16:01;2.07;;;0.70;;
71353;SDS011;59393;51.652;4.864;2023-03-11T01:18:27;6.22;;;0.80;;
71353;SDS011;59393;51.652;4.864;2023-03-11T01:20:53;5.85;;;1.00;;
71353;SDS011;59393;51.652;4.864;2023-03-11T01:23:19;15.15;;;0.82;;
71353;SDS011;59393;51.652;4.864;2023-03-11T01:25:46;3.45;;;0.55;;
71353;SDS011;59393;51.652;4.864;2023-03-11T01:28:12;4.17;;;0.53;;
71353;SDS011;59393;51.652;4.864;2023-03-11T01:30:39;6.28;;;1.00;;
71353;SDS011;59393;51.652;4.864;2023-03-11T01:33:06;8.65;;;0.85;;
71353;SDS011;59393;51.652;4.864;2023-03-11T01:35:33;6.13;;;0.80;;
71353;SDS011;59393;51.652;4.864;2023-03-11T01:37:59;2.78;;;0.70;;
71353;SDS011;59393;51.652;4.864;2023-03-11T01:40:36;5.40;;;1.10;;
71353;SDS011;59393;51.652;4.864;2023-03-11T01:43:03;2.97;;;0.80;;
71353;SDS011;59393;51.652;4.864;2023-03-11T01:45:37;1.38;;;0.43;;
71353;SDS011;59393;51.652;4.864;2023-03-11T01:48:04;3.00;;;0.82;;
71353;SDS011;59393;51.652;4.864;2023-03-11T01:50:34;4.93;;;0.80;;
71353;SDS011;59393;51.652;4.864;2023-03-11T01:53:01;5.87;;;0.97;;
71353;SDS011;59393;51.652;4.864;2023-03-11T01:55:27;5.20;;;1.00;;
71353;SDS011;59393;51.652;4.864;2023-03-11T01:57:53;2.00;;;0.60;;
71353;SDS011;59393;51.652;4.864;2023-03-11T02:00:20;4.88;;;0.77;;
71353;SDS011;59393;51.652;4.864;2023-03-11T02:02:53;3.40;;;0.60;;
71353;SDS011;59393;51.652;4.864;2023-03-11T02:05:20;2.37;;;0.70;;
71353;SDS011;59393;51.652;4.864;2023-03-11T02:07:47;2.20;;;0.60;;
71353;SDS011;59393;51.652;4.864;2023-03-11T02:10:13;6.03;;;1.23;;
71353;SDS011;59393;51.652;4.864;2023-03-11T02:12:40;7.38;;;1.05;;
71353;SDS011;59393;51.652;4.864;2023-03-11T02:15:07;7.47;;;1.13;;
71353;SDS011;59393;51.652;4.864;2023-03-11T02:17:33;2.53;;;0.60;;
71353;SDS011;59393;51.652;4.864;2023-03-11T02:22:26;7.65;;;0.70;;
71353;SDS011;59393;51.652;4.864;2023-03-11T02:27:24;3.67;;;0.83;;
71353;SDS011;59393;51.652;4.864;2023-03-11T02:29:51;2.33;;;0.60;;
71353;SDS011;59393;51.652;4.864;2023-03-11T02:32:18;3.92;;;0.80;;
71353;SDS011;59393;51.652;4.864;2023-03-11T02:34:45;4.57;;;0.90;;
71353;SDS011;59393;51.652;4.864;2023-03-11T02:37:12;6.45;;;0.80;;
71353;SDS011;59393;51.652;4.864;2023-03-11T02:39:42;4.17;;;1.03;;
71353;SDS011;59393;51.652;4.864;2023-03-11T02:42:12;8.48;;;1.20;;
71353;SDS011;59393;51.652;4.864;2023-03-11T02:44:40;6.68;;;0.70;;
71353;SDS011;59393;51.652;4.864;2023-03-11T02:47:07;2.75;;;0.60;;
71353;SDS011;59393;51.652;4.864;2023-03-11T02:49:33;3.58;;;0.52;;
71353;SDS011;59393;51.652;4.864;2023-03-11T02:52:00;5.73;;;0.93;;
71353;SDS011;59393;51.652;4.864;2023-03-11T02:54:26;5.68;;;1.10;;
71353;SDS011;59393;51.652;4.864;2023-03-11T02:56:52;4.43;;;0.70;;
71353;SDS011;59393;51.652;4.864;2023-03-11T02:59:18;1.77;;;0.50;;
71353;SDS011;59393;51.652;4.864;2023-03-11T03:01:44;4.30;;;0.65;;
71353;SDS011;59393;51.652;4.864;2023-03-11T03:04:10;4.57;;;0.90;;
71353;SDS011;59393;51.652;4.864;2023-03-11T03:06:36;2.78;;;0.70;;
71353;SDS011;59393;51.652;4.864;2023-03-11T03:09:02;5.93;;;0.50;;
71353;SDS011;59393;51.652;4.864;2023-03-11T03:11:28;4.57;;;0.93;;
71353;SDS011;59393;51.652;4.864;2023-03-11T03:13:54;6.40;;;0.70;;
71353;SDS011;59393;51.652;4.864;2023-03-11T03:16:20;1.70;;;0.52;;
71353;SDS011;59393;51.652;4.864;2023-03-11T03:18:46;2.05;;;0.50;;
71353;SDS011;59393;51.652;4.864;2023-03-11T03:21:12;6.60;;;0.80;;
71353;SDS011;59393;51.652;4.864;2023-03-11T03:23:38;6.53;;;0.77;;
71353;SDS011;59393;51.652;4.864;2023-03-11T03:26:05;5.68;;;0.85;;
71353;SDS011;59393;51.652;4.864;2023-03-11T03:28:31;8.60;;;0.95;;
71353;SDS011;59393;51.652;4.864;2023-03-11T03:31:04;3.45;;;0.60;;
71353;SDS011;59393;51.652;4.864;2023-03-11T03:33:30;2.15;;;0.60;;
71353;SDS011;59393;51.652;4.864;2023-03-11T03:35:56;6.30;;;1.00;;
71353;SDS011;59393;51.652;4.864;2023-03-11T03:38:22;5.07;;;0.82;;
71353;SDS011;59393;51.652;4.864;2023-03-11T03:40:48;4.35;;;0.73;;
71353;SDS011;59393;51.652;4.864;2023-03-11T03:43:14;3.88;;;0.60;;
71353;SDS011;59393;51.652;4.864;2023-03-11T03:45:40;1.67;;;0.67;;
71353;SDS011;59393;51.652;4.864;2023-03-11T03:48:06;1.70;;;0.40;;
71353;SDS011;59393;51.652;4.864;2023-03-11T03:50:32;2.00;;;0.65;;
71353;SDS011;59393;51.652;4.864;2023-03-11T03:52:58;3.70;;;0.77;;
71353;SDS011;59393;51.652;4.864;2023-03-11T03:55:24;5.70;;;0.67;;
71353;SDS011;59393;51.652;4.864;2023-03-11T03:57:50;3.75;;;1.05;;
71353;SDS011;59393;51.652;4.864;2023-03-11T04:00:16;2.75;;;0.73;;
71353;SDS011;59393;51.652;4.864;2023-03-11T04:02:43;5.50;;;0.88;;
71353;SDS011;59393;51.652;4.864;2023-03-11T04:05:09;4.70;;;0.60;;
71353;SDS011;59393;51.652;4.864;2023-03-11T04:07:35;5.93;;;0.90;;
71353;SDS011;59393;51.652;4.864;2023-03-11T04:10:02;4.22;;;0.95;;
71353;SDS011;59393;51.652;4.864;2023-03-11T04:12:28;6.13;;;0.95;;
71353;SDS011;59393;51.652;4.864;2023-03-11T04:14:54;5.50;;;1.00;;
71353;SDS011;59393;51.652;4.864;2023-03-11T04:17:20;5.40;;;0.87;;
71353;SDS011;59393;51.652;4.864;2023-03-11T04:19:46;4.82;;;0.80;;
71353;SDS011;59393;51.652;4.864;2023-03-11T04:22:12;9.18;;;1.05;;
71353;SDS011;59393;51.652;4.864;2023-03-11T04:24:38;2.83;;;0.80;;
71353;SDS011;59393;51.652;4.864;2023-03-11T04:27:04;3.13;;;0.73;;
71353;SDS011;59393;51.652;4.864;2023-03-11T04:29:30;3.00;;;0.77;;
71353;SDS011;59393;51.652;4.864;2023-03-11T04:31:55;9.00;;;0.82;;
71353;SDS011;59393;51.652;4.864;2023-03-11T04:34:21;7.65;;;0.80;;
71353;SDS011;59393;51.652;4.864;2023-03-11T04:36:50;7.50;;;1.20;;
71353;SDS011;59393;51.652;4.864;2023-03-11T04:39:16;2.25;;;0.60;;
71353;SDS011;59393;51.652;4.864;2023-03-11T04:41:42;7.90;;;0.88;;
71353;SDS011;59393;51.652;4.864;2023-03-11T04:44:08;4.55;;;0.77;;
71353;SDS011;59393;51.652;4.864;2023-03-11T04:46:34;6.03;;;0.73;;
71353;SDS011;59393;51.652;4.864;2023-03-11T04:49:00;2.92;;;0.75;;
71353;SDS011;59393;51.652;4.864;2023-03-11T04:51:26;6.78;;;0.85;;
71353;SDS011;59393;51.652;4.864;2023-03-11T04:53:52;2.00;;;0.70;;
71353;SDS011;59393;51.652;4.864;2023-03-11T04:56:18;5.30;;;0.75;;
71353;SDS011;59393;51.652;4.864;2023-03-11T04:58:44;5.73;;;0.67;;
71353;SDS011;59393;51.652;4.864;2023-03-11T05:01:10;6.00;;;1.05;;
71353;SDS011;59393;51.652;4.864;2023-03-11T05:03:36;3.13;;;0.55;;
71353;SDS011;59393;51.652;4.864;2023-03-11T05:06:02;8.20;;;1.08;;
71353;SDS011;59393;51.652;4.864;2023-03-11T05:08:28;3.60;;;1.33;;
71353;SDS011;59393;51.652;4.864;2023-03-11T05:10:54;2.63;;;0.63;;
71353;SDS011;59393;51.652;4.864;2023-03-11T05:13:20;6.75;;;0.90;;
71353;SDS011;59393;51.652;4.864;2023-03-11T05:15:46;10.35;;;0.77;;
71353;SDS011;59393;51.652;4.864;2023-03-11T05:18:13;6.18;;;0.73;;
71353;SDS011;59393;51.652;4.864;2023-03-11T05:20:39;13.63;;;1.20;;
71353;SDS011;59393;51.652;4.864;2023-03-11T05:23:05;2.75;;;0.77;;
71353;SDS011;59393;51.652;4.864;2023-03-11T05:25:31;3.45;;;0.88;;
71353;SDS011;59393;51.652;4.864;2023-03-11T05:27:57;3.33;;;0.60;;
71353;SDS011;59393;51.652;4.864;2023-03-11T05:30:23;2.33;;;0.60;;
71353;SDS011;59393;51.652;4.864;2023-03-11T05:32:49;5.75;;;1.05;;
71353;SDS011;59393;51.652;4.864;2023-03-11T05:35:15;3.35;;;0.85;;
71353;SDS011;59393;51.652;4.864;2023-03-11T05:37:41;6.85;;;0.90;;
71353;SDS011;59393;51.652;4.864;2023-03-11T05:40:09;2.73;;;0.77;;
71353;SDS011;59393;51.652;4.864;2023-03-11T05:42:36;3.15;;;1.17;;
71353;SDS011;59393;51.652;4.864;2023-03-11T05:45:02;4.63;;;0.80;;
71353;SDS011;59393;51.652;4.864;2023-03-11T05:47:28;3.85;;;0.95;;
71353;SDS011;59393;51.652;4.864;2023-03-11T05:49:54;2.67;;;0.75;;
71353;SDS011;59393;51.652;4.864;2023-03-11T05:52:20;3.70;;;1.10;;
71353;SDS011;59393;51.652;4.864;2023-03-11T05:54:50;3.47;;;0.88;;
71353;SDS011;59393;51.652;4.864;2023-03-11T05:57:17;10.73;;;1.25;;
71353;SDS011;59393;51.652;4.864;2023-03-11T05:59:43;6.57;;;0.80;;
71353;SDS011;59393;51.652;4.864;2023-03-11T06:02:09;3.05;;;0.73;;
71353;SDS011;59393;51.652;4.864;2023-03-11T06:04:35;3.63;;;1.00;;
71353;SDS011;59393;51.652;4.864;2023-03-11T06:07:01;3.50;;;1.00;;
71353;SDS011;59393;51.652;4.864;2023-03-11T06:09:27;3.33;;;0.93;;
71353;SDS011;59393;51.652;4.864;2023-03-11T06:11:53;4.30;;;0.93;;
71353;SDS011;59393;51.652;4.864;2023-03-11T06:14:19;9.60;;;1.15;;
71353;SDS011;59393;51.652;4.864;2023-03-11T06:16:45;8.77;;;1.37;;
71353;SDS011;59393;51.652;4.864;2023-03-11T06:19:11;3.03;;;1.20;;
71353;SDS011;59393;51.652;4.864;2023-03-11T06:21:37;5.25;;;1.20;;
71353;SDS011;59393;51.652;4.864;2023-03-11T06:24:03;5.63;;;1.10;;
71353;SDS011;59393;51.652;4.864;2023-03-11T06:26:29;3.67;;;0.98;;
71353;SDS011;59393;51.652;4.864;2023-03-11T06:28:55;2.33;;;0.80;;
71353;SDS011;59393;51.652;4.864;2023-03-11T06:31:22;4.45;;;0.80;;
71353;SDS011;59393;51.652;4.864;2023-03-11T06:33:49;8.02;;;1.50;;
71353;SDS011;59393;51.652;4.864;2023-03-11T06:36:16;5.25;;;1.25;;
71353;SDS011;59393;51.652;4.864;2023-03-11T06:38:42;4.18;;;1.20;;
71353;SDS011;59393;51.652;4.864;2023-03-11T06:41:10;5.23;;;1.40;;
71353;SDS011;59393;51.652;4.864;2023-03-11T06:43:37;4.70;;;0.90;;
71353;SDS011;59393;51.652;4.864;2023-03-11T06:46:10;3.50;;;1.10;;
71353;SDS011;59393;51.652;4.864;2023-03-11T06:48:38;3.13;;;1.00;;
71353;SDS011;59393;51.652;4.864;2023-03-11T06:51:04;6.25;;;1.52;;
71353;SDS011;59393;51.652;4.864;2023-03-11T06:53:30;3.90;;;0.93;;
71353;SDS011;59393;51.652;4.864;2023-03-11T06:58:30;5.00;;;1.00;;
71353;SDS011;59393;51.652;4.864;2023-03-11T07:01:00;5.53;;;0.98;;
71353;SDS011;59393;51.652;4.864;2023-03-11T07:03:26;4.22;;;0.90;;
71353;SDS011;59393;51.652;4.864;2023-03-11T07:05:52;6.27;;;1.13;;
71353;SDS011;59393;51.652;4.864;2023-03-11T07:08:18;5.00;;;1.35;;
71353;SDS011;59393;51.652;4.864;2023-03-11T07:10:45;9.30;;;1.63;;
71353;SDS011;59393;51.652;4.864;2023-03-11T07:13:14;2.90;;;0.88;;
71353;SDS011;59393;51.652;4.864;2023-03-11T07:15:40;6.35;;;0.80;;
71353;SDS011;59393;51.652;4.864;2023-03-11T07:18:07;5.07;;;0.50;;
71353;SDS011;59393;51.652;4.864;2023-03-11T07:20:33;5.88;;;1.35;;
71353;SDS011;59393;51.652;4.864;2023-03-11T07:22:59;6.65;;;1.48;;
71353;SDS011;59393;51.652;4.864;2023-03-11T07:25:25;8.32;;;1.10;;
71353;SDS011;59393;51.652;4.864;2023-03-11T07:27:51;4.63;;;0.87;;
71353;SDS011;59393;51.652;4.864;2023-03-11T07:30:17;5.70;;;1.75;;
71353;SDS011;59393;51.652;4.864;2023-03-11T07:32:43;5.38;;;1.05;;
71353;SDS011;59393;51.652;4.864;2023-03-11T07:35:14;5.38;;;1.58;;
71353;SDS011;59393;51.652;4.864;2023-03-11T07:37:42;13.07;;;2.03;;
71353;SDS011;59393;51.652;4.864;2023-03-11T07:40:08;6.00;;;1.50;;
71353;SDS011;59393;51.652;4.864;2023-03-11T07:42:34;8.45;;;1.70;;
71353;SDS011;59393;51.652;4.864;2023-03-11T07:45:00;17.00;;;1.80;;
71353;SDS011;59393;51.652;4.864;2023-03-11T07:47:26;13.80;;;2.08;;
71353;SDS011;59393;51.652;4.864;2023-03-11T07:49:52;9.40;;;2.30;;
71353;SDS011;59393;51.652;4.864;2023-03-11T07:52:18;16.90;;;2.97;;
71353;SDS011;59393;51.652;4.864;2023-03-11T07:54:44;5.25;;;1.65;;
71353;SDS011;59393;51.652;4.864;2023-03-11T07:57:11;15.38;;;2.58;;
71353;SDS011;59393;51.652;4.864;2023-03-11T07:59:41;7.80;;;2.28;;
71353;SDS011;59393;51.652;4.864;2023-03-11T08:02:08;8.32;;;2.15;;
71353;SDS011;59393;51.652;4.864;2023-03-11T08:04:35;5.00;;;1.50;;
71353;SDS011;59393;51.652;4.864;2023-03-11T08:07:00;8.38;;;2.35;;
71353;SDS011;59393;51.652;4.864;2023-03-11T08:09:28;11.43;;;2.53;;
71353;SDS011;59393;51.652;4.864;2023-03-11T08:11:55;4.80;;;1.67;;
71353;SDS011;59393;51.652;4.864;2023-03-11T08:14:21;7.37;;;1.20;;
71353;SDS011;59393;51.652;4.864;2023-03-11T08:16:48;7.88;;;2.00;;
71353;SDS011;59393;51.652;4.864;2023-03-11T08:19:14;15.73;;;2.92;;
71353;SDS011;59393;51.652;4.864;2023-03-11T08:21:41;9.90;;;1.83;;
71353;SDS011;59393;51.652;4.864;2023-03-11T08:24:08;7.70;;;1.42;;
71353;SDS011;59393;51.652;4.864;2023-03-11T08:26:35;6.23;;;1.30;;
71353;SDS011;59393;51.652;4.864;2023-03-11T08:29:04;7.38;;;1.63;;
71353;SDS011;59393;51.652;4.864;2023-03-11T08:31:36;22.70;;;2.22;;
71353;SDS011;59393;51.652;4.864;2023-03-11T08:34:04;5.35;;;1.40;;
71353;SDS011;59393;51.652;4.864;2023-03-11T08:36:34;1.45;;;0.52;;
71353;SDS011;59393;51.652;4.864;2023-03-11T08:39:00;2.40;;;0.87;;
71353;SDS011;59393;51.652;4.864;2023-03-11T08:41:29;8.35;;;1.40;;
71353;SDS011;59393;51.652;4.864;2023-03-11T08:44:00;8.30;;;1.60;;
71353;SDS011;59393;51.652;4.864;2023-03-11T08:46:30;6.53;;;1.42;;
71353;SDS011;59393;51.652;4.864;2023-03-11T08:48:57;5.28;;;1.30;;
71353;SDS011;59393;51.652;4.864;2023-03-11T08:51:24;8.37;;;1.37;;
71353;SDS011;59393;51.652;4.864;2023-03-11T08:53:50;4.72;;;1.10;;
71353;SDS011;59393;51.652;4.864;2023-03-11T08:56:19;6.20;;;2.00;;
71353;SDS011;59393;51.652;4.864;2023-03-11T08:58:46;2.67;;;1.08;;
71353;SDS011;59393;51.652;4.864;2023-03-11T09:01:13;8.82;;;1.10;;
71353;SDS011;59393;51.652;4.864;2023-03-11T09:03:39;5.10;;;0.80;;
71353;SDS011;59393;51.652;4.864;2023-03-11T09:06:06;3.85;;;0.82;;
71353;SDS011;59393;51.652;4.864;2023-03-11T09:08:33;4.03;;;0.82;;
71353;SDS011;59393;51.652;4.864;2023-03-11T09:10:59;6.43;;;1.00;;
71353;SDS011;59393;51.652;4.864;2023-03-11T09:13:25;9.93;;;1.05;;
71353;SDS011;59393;51.652;4.864;2023-03-11T09:15:52;5.70;;;1.07;;
71353;SDS011;59393;51.652;4.864;2023-03-11T09:18:18;3.35;;;0.77;;
71353;SDS011;59393;51.652;4.864;2023-03-11T09:20:44;3.60;;;0.93;;
71353;SDS011;59393;51.652;4.864;2023-03-11T09:23:11;7.22;;;1.38;;
71353;SDS011;59393;51.652;4.864;2023-03-11T09:25:37;2.47;;;0.50;;
71353;SDS011;59393;51.652;4.864;2023-03-11T09:28:04;5.57;;;0.70;;
71353;SDS011;59393;51.652;4.864;2023-03-11T09:30:30;5.30;;;0.90;;
71353;SDS011;59393;51.652;4.864;2023-03-11T09:32:56;3.95;;;0.98;;
71353;SDS011;59393;51.652;4.864;2023-03-11T09:35:22;3.72;;;1.00;;
71353;SDS011;59393;51.652;4.864;2023-03-11T09:37:49;4.78;;;0.68;;
71353;SDS011;59393;51.652;4.864;2023-03-11T09:40:16;6.13;;;0.80;;
71353;SDS011;59393;51.652;4.864;2023-03-11T09:42:45;3.75;;;0.70;;
71353;SDS011;59393;51.652;4.864;2023-03-11T09:45:24;3.80;;;0.68;;
71353;SDS011;59393;51.652;4.864;2023-03-11T09:50:45;2.40;;;0.50;;
71353;SDS011;59393;51.652;4.864;2023-03-11T09:55:48;2.55;;;0.50;;
71353;SDS011;59393;51.652;4.864;2023-03-11T09:58:20;3.33;;;1.02;;
71353;SDS011;59393;51.652;4.864;2023-03-11T10:00:47;4.30;;;0.88;;
71353;SDS011;59393;51.652;4.864;2023-03-11T10:03:33;5.28;;;0.63;;
71353;SDS011;59393;51.652;4.864;2023-03-11T10:08:54;7.38;;;0.55;;
71353;SDS011;59393;51.652;4.864;2023-03-11T10:11:33;4.28;;;0.63;;
71353;SDS011;59393;51.652;4.864;2023-03-11T10:14:18;3.25;;;0.60;;
71353;SDS011;59393;51.652;4.864;2023-03-11T10:16:55;3.67;;;0.43;;
71353;SDS011;59393;51.652;4.864;2023-03-11T10:19:34;9.70;;;0.50;;
71353;SDS011;59393;51.652;4.864;2023-03-11T10:27:21;2.20;;;0.50;;
71353;SDS011;59393;51.652;4.864;2023-03-11T10:29:54;5.55;;;0.60;;
71353;SDS011;59393;51.652;4.864;2023-03-11T10:32:28;2.47;;;0.47;;
71353;SDS011;59393;51.652;4.864;2023-03-11T10:35:05;1.35;;;0.75;;
71353;SDS011;59393;51.652;4.864;2023-03-11T10:37:39;2.60;;;0.60;;
71353;SDS011;59393;51.652;4.864;2023-03-11T10:42:40;2.53;;;0.55;;
71353;SDS011;59393;51.652;4.864;2023-03-11T10:45:12;6.40;;;0.70;;
71353;SDS011;59393;51.652;4.864;2023-03-11T10:47:38;8.73;;;0.68;;
71353;SDS011;59393;51.652;4.864;2023-03-11T10:50:05;3.55;;;0.50;;
71353;SDS011;59393;51.652;4.864;2023-03-11T10:52:33;4.28;;;0.65;;
71353;SDS011;59393;51.652;4.864;2023-03-11T10:55:06;4.00;;;0.80;;
71353;SDS011;59393;51.652;4.864;2023-03-11T10:57:33;2.90;;;0.50;;
71353;SDS011;59393;51.652;4.864;2023-03-11T11:00:00;2.00;;;0.50;;
71353;SDS011;59393;51.652;4.864;2023-03-11T11:02:48;4.13;;;0.70;;
71353;SDS011;59393;51.652;4.864;2023-03-11T11:07:42;3.30;;;0.63;;
71353;SDS011;59393;51.652;4.864;2023-03-11T11:10:24;1.47;;;0.40;;
71353;SDS011;59393;51.652;4.864;2023-03-11T11:15:26;7.10;;;0.50;;
71353;SDS011;59393;51.652;4.864;2023-03-11T11:17:53;3.83;;;0.63;;
71353;SDS011;59393;51.652;4.864;2023-03-11T11:20:20;3.72;;;0.45;;
71353;SDS011;59393;51.652;4.864;2023-03-11T11:22:51;3.40;;;0.50;;
71353;SDS011;59393;51.652;4.864;2023-03-11T11:27:54;1.33;;;0.32;;
71353;SDS011;59393;51.652;4.864;2023-03-11T11:30:21;4.07;;;0.40;;
71353;SDS011;59393;51.652;4.864;2023-03-11T11:32:48;1.58;;;0.43;;
71353;SDS011;59393;51.652;4.864;2023-03-11T11:35:18;1.63;;;0.33;;
71353;SDS011;59393;51.652;4.864;2023-03-11T11:37:47;2.53;;;0.45;;
71353;SDS011;59393;51.652;4.864;2023-03-11T11:40:22;1.55;;;0.60;;
71353;SDS011;59393;51.652;4.864;2023-03-11T11:42:56;3.55;;;0.50;;
71353;SDS011;59393;51.652;4.864;2023-03-11T11:47:55;3.73;;;0.43;;
71353;SDS011;59393;51.652;4.864;2023-03-11T11:53:02;2.97;;;0.50;;
71353;SDS011;59393;51.652;4.864;2023-03-11T11:55:30;6.88;;;0.60;;
71353;SDS011;59393;51.652;4.864;2023-03-11T11:57:57;4.28;;;0.57;;
71353;SDS011;59393;51.652;4.864;2023-03-11T12:05:44;5.05;;;0.40;;
71353;SDS011;59393;51.652;4.864;2023-03-11T12:08:22;1.80;;;0.50;;
71353;SDS011;59393;51.652;4.864;2023-03-11T12:11:00;0.85;;;0.40;;
71353;SDS011;59393;51.652;4.864;2023-03-11T12:16:01;1.25;;;0.35;;
71353;SDS011;59393;51.652;4.864;2023-03-11T12:20:54;2.83;;;0.40;;
71353;SDS011;59393;51.652;4.864;2023-03-11T12:26:13;4.30;;;0.70;;
71353;SDS011;59393;51.652;4.864;2023-03-11T12:28:44;2.58;;;0.50;;
71353;SDS011;59393;51.652;4.864;2023-03-11T12:31:12;1.15;;;0.43;;
71353;SDS011;59393;51.652;4.864;2023-03-11T12:33:42;3.03;;;0.57;;
71353;SDS011;59393;51.652;4.864;2023-03-11T12:36:19;3.60;;;0.43;;
71353;SDS011;59393;51.652;4.864;2023-03-11T12:38:47;5.78;;;1.58;;
71353;SDS011;59393;51.652;4.864;2023-03-11T12:46:09;5.05;;;0.70;;
71353;SDS011;59393;51.652;4.864;2023-03-11T12:51:05;2.72;;;0.68;;
71353;SDS011;59393;51.652;4.864;2023-03-11T12:53:47;2.10;;;0.82;;
71353;SDS011;59393;51.652;4.864;2023-03-11T13:01:14;1.88;;;0.52;;
71353;SDS011;59393;51.652;4.864;2023-03-11T13:03:47;1.90;;;0.45;;
71353;SDS011;59393;51.652;4.864;2023-03-11T13:08:47;3.45;;;1.00;;
71353;SDS011;59393;51.652;4.864;2023-03-11T13:16:47;5.63;;;1.10;;
71353;SDS011;59393;51.652;4.864;2023-03-11T13:21:52;3.33;;;0.70;;
71353;SDS011;59393;51.652;4.864;2023-03-11T13:40:40;2.33;;;0.60;;
71353;SDS011;59393;51.652;4.864;2023-03-11T13:43:08;3.83;;;0.70;;
71353;SDS011;59393;51.652;4.864;2023-03-11T13:45:36;1.52;;;0.50;;
71353;SDS011;59393;51.652;4.864;2023-03-11T13:48:05;3.47;;;0.90;;
71353;SDS011;59393;51.652;4.864;2023-03-11T13:50:39;6.47;;;0.83;;
71353;SDS011;59393;51.652;4.864;2023-03-11T13:53:09;2.55;;;0.60;;
71353;SDS011;59393;51.652;4.864;2023-03-11T13:55:45;3.92;;;1.02;;
71353;SDS011;59393;51.652;4.864;2023-03-11T13:58:13;3.33;;;0.70;;
71353;SDS011;59393;51.652;4.864;2023-03-11T14:00:45;2.67;;;1.13;;
71353;SDS011;59393;51.652;4.864;2023-03-11T14:03:11;3.83;;;0.90;;
71353;SDS011;59393;51.652;4.864;2023-03-11T14:05:39;3.40;;;0.82;;
71353;SDS011;59393;51.652;4.864;2023-03-11T14:10:37;4.97;;;0.52;;
71353;SDS011;59393;51.652;4.864;2023-03-11T14:13:06;3.30;;;0.60;;
71353;SDS011;59393;51.652;4.864;2023-03-11T14:18:26;2.65;;;0.73;;
71353;SDS011;59393;51.652;4.864;2023-03-11T14:20:52;2.65;;;0.60;;
71353;SDS011;59393;51.652;4.864;2023-03-11T14:23:18;3.40;;;0.60;;
71353;SDS011;59393;51.652;4.864;2023-03-11T14:25:44;2.80;;;0.60;;
71353;SDS011;59393;51.652;4.864;2023-03-11T14:28:19;2.47;;;0.53;;
71353;SDS011;59393;51.652;4.864;2023-03-11T14:30:56;2.92;;;0.50;;
71353;SDS011;59393;51.652;4.864;2023-03-11T14:33:22;2.97;;;0.50;;
71353;SDS011;59393;51.652;4.864;2023-03-11T14:35:56;8.35;;;1.02;;
71353;SDS011;59393;51.652;4.864;2023-03-11T14:38:24;5.60;;;0.80;;
71353;SDS011;59393;51.652;4.864;2023-03-11T14:40:54;1.90;;;0.60;;
71353;SDS011;59393;51.652;4.864;2023-03-11T14:43:21;2.72;;;0.77;;
71353;SDS011;59393;51.652;4.864;2023-03-11T14:45:48;1.95;;;0.35;;
71353;SDS011;59393;51.652;4.864;2023-03-11T14:50:59;2.90;;;0.50;;
71353;SDS011;59393;51.652;4.864;2023-03-11T14:56:26;3.78;;;0.63;;
71353;SDS011;59393;51.652;4.864;2023-03-11T15:01:50;2.25;;;0.60;;
71353;SDS011;59393;51.652;4.864;2023-03-11T15:06:51;2.47;;;0.60;;
71353;SDS011;59393;51.652;4.864;2023-03-11T15:09:18;5.78;;;0.70;;
71353;SDS011;59393;51.652;4.864;2023-03-11T15:11:51;3.55;;;0.50;;
71353;SDS011;59393;51.652;4.864;2023-03-11T15:16:45;3.25;;;0.45;;
71353;SDS011;59393;51.652;4.864;2023-03-11T15:21:47;2.35;;;0.50;;
71353;SDS011;59393;51.652;4.864;2023-03-11T15:24:17;3.25;;;0.80;;
71353;SDS011;59393;51.652;4.864;2023-03-11T15:26:52;4.80;;;0.60;;
71353;SDS011;59393;51.652;4.864;2023-03-11T15:29:18;2.67;;;0.40;;
71353;SDS011;59393;51.652;4.864;2023-03-11T15:31:45;1.40;;;0.43;;
71353;SDS011;59393;51.652;4.864;2023-03-11T15:39:39;3.55;;;0.80;;
71353;SDS011;59393;51.652;4.864;2023-03-11T15:44:40;3.37;;;0.63;;
71353;SDS011;59393;51.652;4.864;2023-03-11T15:47:17;3.33;;;0.70;;
71353;SDS011;59393;51.652;4.864;2023-03-11T15:49:44;3.40;;;0.80;;
71353;SDS011;59393;51.652;4.864;2023-03-11T15:52:10;6.68;;;0.85;;
71353;SDS011;59393;51.652;4.864;2023-03-11T15:54:36;5.45;;;0.70;;
71353;SDS011;59393;51.652;4.864;2023-03-11T15:57:07;4.13;;;0.50;;
71353;SDS011;59393;51.652;4.864;2023-03-11T15:59:33;1.90;;;0.50;;
71353;SDS011;59393;51.652;4.864;2023-03-11T16:02:00;3.58;;;0.80;;
71353;SDS011;59393;51.652;4.864;2023-03-11T16:04:33;2.75;;;0.60;;
71353;SDS011;59393;51.652;4.864;2023-03-11T16:06:59;3.05;;;0.88;;
71353;SDS011;59393;51.652;4.864;2023-03-11T16:09:25;4.73;;;0.77;;
71353;SDS011;59393;51.652;4.864;2023-03-11T16:11:52;4.22;;;0.80;;
71353;SDS011;59393;51.652;4.864;2023-03-11T16:14:19;5.93;;;1.58;;
71353;SDS011;59393;51.652;4.864;2023-03-11T16:16:47;4.00;;;0.70;;
71353;SDS011;59393;51.652;4.864;2023-03-11T16:19:22;5.32;;;0.73;;
71353;SDS011;59393;51.652;4.864;2023-03-11T16:21:48;1.40;;;0.50;;
71353;SDS011;59393;51.652;4.864;2023-03-11T16:24:19;2.75;;;0.60;;
71353;SDS011;59393;51.652;4.864;2023-03-11T16:26:45;5.25;;;0.95;;
71353;SDS011;59393;51.652;4.864;2023-03-11T16:29:11;4.93;;;0.65;;
71353;SDS011;59393;51.652;4.864;2023-03-11T16:31:39;5.85;;;0.80;;
71353;SDS011;59393;51.652;4.864;2023-03-11T16:34:05;2.43;;;0.60;;
71353;SDS011;59393;51.652;4.864;2023-03-11T16:36:31;5.38;;;0.77;;
71353;SDS011;59393;51.652;4.864;2023-03-11T16:38:57;4.97;;;0.70;;
71353;SDS011;59393;51.652;4.864;2023-03-11T16:41:26;2.60;;;0.60;;
71353;SDS011;59393;51.652;4.864;2023-03-11T16:43:54;4.13;;;0.80;;
71353;SDS011;59393;51.652;4.864;2023-03-11T16:46:20;3.80;;;0.83;;
71353;SDS011;59393;51.652;4.864;2023-03-11T16:48:47;5.25;;;0.88;;